createdAt,value
2023-04-19T00:02:03.208Z,17.88
2023-04-19T00:04:30.624Z,19.83
2023-04-19T00:06:58.556Z,16.65
2023-04-19T00:09:25.693Z,16.48
2023-04-19T00:11:53.020Z,17.10
2023-04-19T00:14:19.932Z,17.90
2023-04-19T00:16:46.902Z,15.40
2023-04-19T00:19:16.733Z,15.27
2023-04-19T00:21:43.647Z,19.00
2023-04-19T00:24:10.452Z,16.98
2023-04-19T00:26:37.679Z,19.95
2023-04-19T00:29:04.620Z,16.15
2023-04-19T00:31:33.553Z,17.23
2023-04-19T00:34:00.539Z,17.27
2023-04-19T00:36:27.406Z,17.38
2023-04-19T00:38:54.205Z,18.55
2023-04-19T00:41:21.362Z,16.58
2023-04-19T00:43:48.263Z,15.85
2023-04-19T00:46:16.085Z,15.70
2023-04-19T00:48:43.284Z,16.33
2023-04-19T00:51:13.000Z,17.95
2023-04-19T00:53:41.215Z,15.90
2023-04-19T00:56:09.609Z,18.05
2023-04-19T00:58:38.635Z,17.50
2023-04-19T01:01:06.454Z,18.08
2023-04-19T01:03:35.036Z,19.05
2023-04-19T01:06:02.533Z,17.67
2023-04-19T01:08:29.478Z,19.77
2023-04-19T01:10:56.267Z,18.27
2023-04-19T01:13:23.228Z,19.95
2023-04-19T01:15:51.726Z,19.50
2023-04-19T01:18:24.563Z,19.58
2023-04-19T01:20:52.018Z,18.85
2023-04-19T01:23:19.145Z,18.88
2023-04-19T01:25:46.367Z,18.67
2023-04-19T01:28:13.536Z,20.58
2023-04-19T01:30:41.752Z,20.60
2023-04-19T01:33:08.704Z,17.40
2023-04-19T01:35:35.704Z,20.50
2023-04-19T01:38:02.850Z,20.05
2023-04-19T01:40:29.621Z,21.33
2023-04-19T01:42:57.843Z,19.52
2023-04-19T01:45:25.963Z,18.50
2023-04-19T01:47:52.844Z,20.05
2023-04-19T01:50:20.003Z,19.60
2023-04-19T01:52:47.040Z,19.30
2023-04-19T01:55:13.894Z,18.42
2023-04-19T01:57:40.782Z,17.60
2023-04-19T02:00:08.880Z,20.52
2023-04-19T02:02:42.012Z,19.67
2023-04-19T02:05:09.809Z,20.63
2023-04-19T02:07:36.640Z,20.00
2023-04-19T02:10:04.126Z,19.58
2023-04-19T02:12:31.487Z,17.73
2023-04-19T02:14:59.606Z,18.95
2023-04-19T02:17:34.825Z,18.20
2023-04-19T02:20:01.738Z,19.08
2023-04-19T02:22:28.502Z,18.33
2023-04-19T02:24:55.756Z,17.35
2023-04-19T02:27:29.470Z,17.17
2023-04-19T02:29:56.623Z,16.33
2023-04-19T02:32:24.615Z,18.48
2023-04-19T02:34:51.992Z,16.20
2023-04-19T02:37:19.592Z,18.00
2023-04-19T02:39:46.461Z,17.65
2023-04-19T02:42:13.372Z,18.50
2023-04-19T02:44:40.127Z,17.60
2023-04-19T02:47:08.130Z,18.65
2023-04-19T02:49:37.128Z,17.42
2023-04-19T02:52:04.749Z,17.05
2023-04-19T02:54:33.927Z,16.02
2023-04-19T02:57:01.260Z,17.30
2023-04-19T02:59:28.243Z,17.90
2023-04-19T03:02:01.545Z,18.48
2023-04-19T03:04:29.027Z,20.77
2023-04-19T03:06:56.458Z,16.60
2023-04-19T03:09:23.457Z,17.55
2023-04-19T03:11:50.451Z,16.55
2023-04-19T03:14:18.090Z,17.63
2023-04-19T03:16:45.324Z,19.55
2023-04-19T03:19:12.316Z,17.85
2023-04-19T03:21:46.979Z,17.92
2023-04-19T03:24:14.349Z,17.70
2023-04-19T03:26:47.286Z,19.17
2023-04-19T03:29:15.334Z,20.67
2023-04-19T03:31:50.721Z,20.83
2023-04-19T03:34:19.144Z,19.52
2023-04-19T03:36:48.716Z,22.15
2023-04-19T03:39:15.513Z,19.08
2023-04-19T03:41:45.977Z,20.67
2023-04-19T03:44:26.490Z,18.58
2023-04-19T03:46:53.971Z,19.30
2023-04-19T03:49:25.419Z,19.98
2023-04-19T03:52:02.934Z,21.17
2023-04-19T03:54:29.867Z,22.25
2023-04-19T03:56:57.173Z,18.90
2023-04-19T03:59:25.351Z,23.92
2023-04-19T04:01:53.028Z,19.63
2023-04-19T04:04:20.546Z,21.40
2023-04-19T04:06:47.575Z,23.88
2023-04-19T04:09:16.769Z,21.75
2023-04-19T04:11:44.291Z,21.63
2023-04-19T04:14:11.557Z,23.27
2023-04-19T04:16:39.289Z,22.55
2023-04-19T04:19:07.618Z,20.70
2023-04-19T04:21:37.905Z,21.60
2023-04-19T04:24:08.176Z,23.48
2023-04-19T04:26:51.508Z,22.60
2023-04-19T04:29:29.006Z,23.02
2023-04-19T04:31:58.645Z,22.77
2023-04-19T04:34:31.273Z,24.15
2023-04-19T04:37:06.972Z,24.73
2023-04-19T04:39:39.165Z,20.92
2023-04-19T04:42:10.224Z,25.63
2023-04-19T04:44:37.316Z,23.48
2023-04-19T04:47:04.892Z,21.60
2023-04-19T04:49:37.702Z,22.98
2023-04-19T04:52:04.768Z,24.27
2023-04-19T04:54:36.884Z,23.33
2023-04-19T04:57:05.314Z,25.40
2023-04-19T04:59:32.356Z,24.13
2023-04-19T05:01:59.670Z,24.90
2023-04-19T05:04:26.616Z,21.70
2023-04-19T05:06:53.654Z,24.45
2023-04-19T05:09:24.992Z,25.42
2023-04-19T05:11:52.283Z,23.52
2023-04-19T05:14:19.382Z,23.77
2023-04-19T05:16:46.300Z,26.10
2023-04-19T05:19:13.467Z,24.63
2023-04-19T05:21:46.615Z,24.05
2023-04-19T05:24:14.886Z,22.98
2023-04-19T05:26:42.308Z,25.50
2023-04-19T05:29:10.634Z,23.65
2023-04-19T05:31:49.752Z,20.65
2023-04-19T05:34:22.237Z,21.75
2023-04-19T05:36:49.904Z,24.50
2023-04-19T05:39:17.450Z,21.25
2023-04-19T05:41:44.397Z,20.23
2023-04-19T05:44:11.139Z,22.33
2023-04-19T05:46:38.242Z,20.02
2023-04-19T05:49:08.763Z,20.70
2023-04-19T05:52:00.628Z,19.75
2023-04-19T05:54:36.180Z,20.52
2023-04-19T05:57:04.431Z,21.25
2023-04-19T05:59:31.798Z,21.48
2023-04-19T06:01:59.347Z,21.90
2023-04-19T06:04:27.822Z,20.45
2023-04-19T06:06:55.345Z,21.30
2023-04-19T06:09:22.426Z,23.20
2023-04-19T06:11:51.603Z,20.13
2023-04-19T06:14:19.313Z,18.73
2023-04-19T06:16:47.469Z,17.67
2023-04-19T06:19:14.402Z,18.88
2023-04-19T06:21:41.286Z,19.27
2023-04-19T06:24:08.519Z,19.85
2023-04-19T06:26:35.314Z,17.88
2023-04-19T06:29:02.333Z,18.15
2023-04-19T06:31:29.384Z,21.00
2023-04-19T06:33:56.185Z,17.63
2023-04-19T06:36:22.976Z,20.08
2023-04-19T06:38:50.332Z,17.73
2023-04-19T06:41:17.775Z,20.15
2023-04-19T06:43:44.972Z,18.77
2023-04-19T06:46:14.429Z,21.10
2023-04-19T06:48:42.105Z,17.48
2023-04-19T06:51:09.485Z,21.35
2023-04-19T06:53:36.926Z,19.50
2023-04-19T06:56:05.278Z,19.73
2023-04-19T06:58:34.545Z,22.45
2023-04-19T07:01:03.935Z,22.33
2023-04-19T07:03:31.078Z,22.63
2023-04-19T07:05:57.910Z,22.27
2023-04-19T07:08:32.214Z,21.42
2023-04-19T07:11:05.933Z,23.17
2023-04-19T07:13:32.868Z,25.27
2023-04-19T07:15:59.787Z,20.65
2023-04-19T07:18:26.731Z,23.30
2023-04-19T07:20:53.789Z,23.63
2023-04-19T07:23:20.592Z,25.45
2023-04-19T07:25:47.339Z,25.02
2023-04-19T07:28:14.203Z,25.70
2023-04-19T07:30:41.591Z,23.27
2023-04-19T07:33:08.553Z,24.48
2023-04-19T07:35:35.931Z,21.05
2023-04-19T07:38:02.973Z,20.73
2023-04-19T07:40:29.935Z,22.77
2023-04-19T07:42:59.941Z,22.30
2023-04-19T07:45:26.933Z,22.50
2023-04-19T07:47:53.818Z,22.33
2023-04-19T07:50:23.115Z,21.75
2023-04-19T07:52:50.184Z,19.52
2023-04-19T07:55:17.124Z,25.67
2023-04-19T07:57:48.131Z,20.50
2023-04-19T08:00:16.155Z,21.63
2023-04-19T08:02:47.020Z,19.83
2023-04-19T08:05:19.268Z,21.63
2023-04-19T08:07:46.261Z,23.77
2023-04-19T08:10:13.308Z,22.00
2023-04-19T08:12:50.329Z,20.80
2023-04-19T08:16:05.195Z,24.05
2023-04-19T08:18:10.968Z,20.33
2023-04-19T08:20:37.876Z,17.75
2023-04-19T08:23:20.530Z,19.30
2023-04-19T08:25:51.421Z,20.48
2023-04-19T08:28:19.394Z,21.95
2023-04-19T08:30:46.382Z,21.48
2023-04-19T08:33:13.441Z,21.75
2023-04-19T08:35:41.688Z,23.58
2023-04-19T08:38:09.238Z,19.30
2023-04-19T08:40:45.672Z,19.05
2023-04-19T08:43:12.610Z,19.85
2023-04-19T08:45:40.142Z,19.23
2023-04-19T08:48:11.855Z,22.67
2023-04-19T08:50:56.020Z,19.58
2023-04-19T08:53:31.320Z,19.30
2023-04-19T08:56:12.736Z,18.08
2023-04-19T08:59:00.503Z,18.48
2023-04-19T09:01:34.617Z,18.25
2023-04-19T09:04:16.918Z,19.13
2023-04-19T09:06:54.322Z,17.60
2023-04-19T09:09:35.479Z,18.58
2023-04-19T09:12:18.267Z,16.42
2023-04-19T09:15:01.117Z,19.00
2023-04-19T09:17:28.784Z,18.35
2023-04-19T09:19:56.058Z,16.80
2023-04-19T09:22:23.189Z,18.40
2023-04-19T09:27:33.275Z,17.17
2023-04-19T09:30:02.105Z,15.68
2023-04-19T09:32:44.570Z,16.92
2023-04-19T09:35:11.459Z,15.88
2023-04-19T09:38:04.029Z,14.60
2023-04-19T09:40:28.493Z,15.63
2023-04-19T09:43:07.333Z,14.95
2023-04-19T09:45:47.317Z,14.73
2023-04-19T09:48:14.512Z,15.02
2023-04-19T09:51:02.414Z,15.02
2023-04-19T09:53:35.145Z,15.02
2023-04-19T09:56:03.974Z,14.98
2023-04-19T09:58:42.542Z,12.77
2023-04-19T10:01:16.560Z,12.52
2023-04-19T10:03:49.906Z,13.70
2023-04-19T10:08:50.442Z,13.93
2023-04-19T10:11:19.098Z,14.07
2023-04-19T10:13:48.128Z,12.30
2023-04-19T10:16:19.380Z,13.95
2023-04-19T10:18:47.845Z,11.63
2023-04-19T10:21:15.807Z,15.18
2023-04-19T10:23:42.677Z,13.02
2023-04-19T10:26:09.405Z,15.20
2023-04-19T10:28:37.241Z,12.80
2023-04-19T10:31:05.029Z,11.20
2023-04-19T10:33:36.703Z,12.85
2023-04-19T10:36:04.286Z,12.25
2023-04-19T10:38:46.365Z,14.25
2023-04-19T10:41:18.215Z,11.80
2023-04-19T10:43:58.236Z,12.07
2023-04-19T10:46:26.154Z,11.20
2023-04-19T10:49:01.483Z,9.77
2023-04-19T10:51:42.237Z,11.32
2023-04-19T10:54:28.653Z,11.80
2023-04-19T10:57:04.962Z,12.55
2023-04-19T10:59:33.989Z,12.48
2023-04-19T11:02:03.274Z,10.73
2023-04-19T11:04:30.648Z,11.65
2023-04-19T11:07:07.922Z,11.18
2023-04-19T11:09:38.590Z,12.15
2023-04-19T11:12:09.556Z,12.60
2023-04-19T11:14:40.277Z,11.65
2023-04-19T11:17:28.129Z,9.82
2023-04-19T11:19:57.166Z,10.05
2023-04-19T11:22:31.811Z,10.38
2023-04-19T11:25:10.844Z,10.68
2023-04-19T11:27:42.981Z,10.82
2023-04-19T11:30:15.345Z,13.73
2023-04-19T11:32:49.654Z,10.85
2023-04-19T11:35:20.800Z,10.88
2023-04-19T11:37:47.653Z,10.82
2023-04-19T11:40:18.785Z,9.10
2023-04-19T11:42:46.660Z,8.93
2023-04-19T11:45:31.709Z,8.73
2023-04-19T11:48:01.109Z,9.68
2023-04-19T11:50:42.078Z,9.32
2023-04-19T11:53:21.704Z,9.93
2023-04-19T11:56:06.444Z,10.43
2023-04-19T11:58:40.888Z,9.20
2023-04-19T12:01:09.875Z,10.20
2023-04-19T12:03:51.325Z,10.60
2023-04-19T12:06:26.897Z,10.75
2023-04-19T12:08:55.675Z,11.10
2023-04-19T12:11:26.464Z,11.57
2023-04-19T12:14:13.019Z,10.93
2023-04-19T12:16:39.997Z,10.52
2023-04-19T12:19:20.642Z,9.30
2023-04-19T12:21:48.011Z,11.50
2023-04-19T12:24:16.518Z,9.23
2023-04-19T12:26:57.040Z,9.18
2023-04-19T12:29:27.859Z,11.25
2023-04-19T12:31:55.119Z,9.38
2023-04-19T12:34:21.933Z,9.15
2023-04-19T12:36:48.912Z,8.88
2023-04-19T12:39:15.929Z,9.20
2023-04-19T12:41:42.929Z,12.30
2023-04-19T12:44:09.763Z,10.63
2023-04-19T12:46:37.026Z,9.93
2023-04-19T12:49:03.959Z,9.10
2023-04-19T12:51:31.776Z,12.88
2023-04-19T12:53:58.683Z,9.05
2023-04-19T12:56:26.129Z,7.93
2023-04-19T12:58:53.568Z,8.00
2023-04-19T13:01:20.662Z,8.02
2023-04-19T13:03:47.804Z,6.85
2023-04-19T13:06:16.904Z,8.70
2023-04-19T13:08:46.626Z,7.78
2023-04-19T13:11:15.723Z,7.60
2023-04-19T13:13:42.499Z,7.15
2023-04-19T13:16:09.297Z,7.80
2023-04-19T13:18:36.948Z,7.45
2023-04-19T13:21:06.622Z,7.95
2023-04-19T13:23:34.755Z,8.05
2023-04-19T13:26:01.508Z,9.05
2023-04-19T13:28:28.437Z,9.57
2023-04-19T13:30:55.448Z,10.80
2023-04-19T13:33:22.342Z,10.82
2023-04-19T13:35:49.173Z,14.10
2023-04-19T13:38:15.956Z,12.68
2023-04-19T13:40:44.276Z,13.80
2023-04-19T13:43:11.145Z,13.95
2023-04-19T13:45:38.117Z,13.65
2023-04-19T13:48:05.395Z,10.73
2023-04-19T13:50:32.337Z,11.75
2023-04-19T13:52:59.841Z,9.93
2023-04-19T13:55:27.420Z,13.05
2023-04-19T13:57:54.551Z,14.38
2023-04-19T14:00:21.673Z,12.95
2023-04-19T14:02:50.167Z,15.25
2023-04-19T14:05:19.114Z,14.90
2023-04-19T14:07:45.951Z,16.10
2023-04-19T14:10:12.765Z,17.73
2023-04-19T14:12:39.552Z,14.02
2023-04-19T14:15:07.131Z,14.32
2023-04-19T14:17:35.825Z,15.38
2023-04-19T14:20:05.663Z,13.68
2023-04-19T14:22:35.181Z,13.60
2023-04-19T14:25:02.848Z,14.15
2023-04-19T14:27:29.854Z,15.30
2023-04-19T14:29:56.836Z,12.95
2023-04-19T14:32:26.617Z,15.88
2023-04-19T14:34:55.836Z,13.75
2023-04-19T14:37:24.279Z,15.80
2023-04-19T14:39:51.781Z,15.13
2023-04-19T14:42:21.671Z,14.82
2023-04-19T14:44:51.376Z,16.50
2023-04-19T14:47:18.242Z,15.77
2023-04-19T14:49:45.417Z,14.57
2023-04-19T14:52:12.592Z,17.30
2023-04-19T14:54:39.518Z,18.25
2023-04-19T14:57:06.403Z,18.02
2023-04-19T14:59:34.199Z,17.85
2023-04-19T15:02:01.085Z,19.25
2023-04-19T15:04:28.177Z,18.33
2023-04-19T15:06:55.066Z,18.65
2023-04-19T15:09:21.966Z,18.33
2023-04-19T15:11:48.726Z,20.33
2023-04-19T15:14:15.660Z,21.95
2023-04-19T15:16:43.031Z,19.55
2023-04-19T15:19:09.803Z,19.65
2023-04-19T15:21:36.762Z,18.30
2023-04-19T15:24:04.594Z,19.83
2023-04-19T15:26:31.604Z,18.75
2023-04-19T15:28:58.434Z,17.33
2023-04-19T15:31:26.136Z,18.63
2023-04-19T15:33:53.489Z,15.52
2023-04-19T15:36:20.330Z,19.52
2023-04-19T15:38:47.112Z,16.15
2023-04-19T15:41:13.965Z,16.55
2023-04-19T15:43:40.845Z,16.23
2023-04-19T15:46:14.349Z,13.27
2023-04-19T15:48:42.320Z,14.98
2023-04-19T15:51:10.919Z,12.65
2023-04-19T15:53:37.798Z,11.70
2023-04-19T15:56:05.459Z,12.45
2023-04-19T15:58:32.331Z,12.45
2023-04-19T16:00:59.274Z,14.38
2023-04-19T16:03:26.188Z,13.90
2023-04-19T16:05:53.240Z,13.90
2023-04-19T16:08:20.009Z,14.32
2023-04-19T16:10:47.550Z,15.32
2023-04-19T16:13:15.707Z,15.45
2023-04-19T16:15:44.321Z,15.52
2023-04-19T16:18:13.203Z,17.05
2023-04-19T16:20:41.078Z,15.82
2023-04-19T16:23:08.118Z,17.38
2023-04-19T16:25:35.063Z,16.42
2023-04-19T16:28:01.902Z,19.70
2023-04-19T16:30:28.849Z,19.02
2023-04-19T16:32:56.425Z,20.70
2023-04-19T16:35:24.063Z,18.83
2023-04-19T16:37:50.994Z,18.27
2023-04-19T16:40:18.102Z,21.15
2023-04-19T16:42:44.888Z,19.38
2023-04-19T16:45:11.995Z,19.40
2023-04-19T16:47:39.032Z,16.48
2023-04-19T16:50:06.581Z,17.92
2023-04-19T16:52:35.602Z,17.35
2023-04-19T16:55:05.961Z,20.52
2023-04-19T16:57:32.947Z,19.67
2023-04-19T17:00:00.447Z,18.02
2023-04-19T17:02:27.547Z,20.20
2023-04-19T17:04:55.035Z,18.33
2023-04-19T17:07:21.863Z,16.02
2023-04-19T17:09:48.716Z,16.15
2023-04-19T17:12:15.460Z,16.60
2023-04-19T17:14:42.521Z,16.15
2023-04-19T17:17:09.314Z,14.25
2023-04-19T17:19:36.729Z,16.88
2023-04-19T17:22:05.621Z,15.20
2023-04-19T17:24:33.587Z,15.13
2023-04-19T17:27:01.001Z,15.13
2023-04-19T17:29:27.903Z,12.85
2023-04-19T17:31:56.200Z,14.00
2023-04-19T17:34:23.186Z,13.90
2023-04-19T17:36:50.239Z,15.35
2023-04-19T17:39:17.633Z,16.67
2023-04-19T17:41:44.934Z,16.52
2023-04-19T17:44:12.684Z,16.30
2023-04-19T17:46:40.420Z,15.07
2023-04-19T17:49:08.680Z,19.63
2023-04-19T17:51:35.464Z,14.95
2023-04-19T17:54:03.096Z,13.63
2023-04-19T17:56:30.098Z,15.35
2023-04-19T17:58:57.630Z,14.23
2023-04-19T18:01:24.560Z,16.33
2023-04-19T18:03:51.591Z,16.08
2023-04-19T18:06:20.739Z,16.50
2023-04-19T18:08:47.716Z,13.70
2023-04-19T18:11:18.061Z,16.08
2023-04-19T18:13:45.865Z,16.65
2023-04-19T18:16:13.675Z,19.60
2023-04-19T18:18:40.906Z,16.13
2023-04-19T18:21:09.215Z,15.13
2023-04-19T18:23:36.046Z,20.30
2023-04-19T18:26:03.946Z,15.90
2023-04-19T18:28:31.302Z,18.17
2023-04-19T18:30:58.145Z,17.23
2023-04-19T18:33:25.153Z,15.70
2023-04-19T18:35:53.975Z,20.08
2023-04-19T18:38:21.227Z,19.27
2023-04-19T18:40:48.600Z,17.50
2023-04-19T18:43:15.790Z,14.52
2023-04-19T18:45:42.707Z,15.05
2023-04-19T18:48:09.855Z,15.38
2023-04-19T18:50:38.240Z,13.50
2023-04-19T18:53:05.252Z,15.57
2023-04-19T18:55:32.312Z,58.83
2023-04-19T18:58:01.442Z,21.85
2023-04-19T19:00:28.433Z,16.20
2023-04-19T19:02:57.048Z,12.70
2023-04-19T19:05:24.296Z,13.55
2023-04-19T19:07:51.449Z,14.52
2023-04-19T19:10:21.883Z,20.15
2023-04-19T19:12:50.145Z,19.48
2023-04-19T19:15:17.216Z,15.20
2023-04-19T19:17:49.223Z,12.75
2023-04-19T19:20:17.439Z,13.23
2023-04-19T19:22:45.416Z,15.20
2023-04-19T19:25:13.144Z,14.52
2023-04-19T19:27:40.164Z,15.88
2023-04-19T19:30:07.941Z,15.98
2023-04-19T19:32:35.052Z,16.80
2023-04-19T19:35:06.365Z,16.35
2023-04-19T19:37:35.886Z,16.58
2023-04-19T19:40:06.329Z,14.13
2023-04-19T19:42:36.589Z,14.82
2023-04-19T19:45:07.080Z,16.13
2023-04-19T19:47:35.550Z,14.98
2023-04-19T19:52:36.992Z,18.58
2023-04-19T19:55:04.113Z,16.88
2023-04-19T20:02:53.976Z,16.17
2023-04-19T20:05:23.503Z,15.05
2023-04-19T20:10:21.275Z,16.75
2023-04-19T20:12:48.321Z,15.63
2023-04-19T20:15:15.396Z,16.63
2023-04-19T20:17:43.774Z,17.58
2023-04-19T20:20:11.361Z,18.60
2023-04-19T20:22:38.714Z,17.92
2023-04-19T20:25:06.624Z,17.95
2023-04-19T20:27:33.863Z,16.30
2023-04-19T20:30:01.028Z,18.33
2023-04-19T20:32:28.334Z,18.58
2023-04-19T20:34:55.555Z,18.20
2023-04-19T20:37:22.636Z,17.88
2023-04-19T20:39:49.498Z,19.23
2023-04-19T20:42:16.235Z,18.05
2023-04-19T20:44:43.095Z,19.27
2023-04-19T20:47:10.395Z,17.98
2023-04-19T20:49:37.313Z,19.23
2023-04-19T20:52:06.450Z,21.80
2023-04-19T20:54:34.190Z,18.38
2023-04-19T20:57:02.663Z,18.88
2023-04-19T20:59:29.621Z,22.02
2023-04-19T21:01:56.788Z,20.23
2023-04-19T21:04:23.771Z,20.13
2023-04-19T21:06:50.764Z,22.15
2023-04-19T21:09:18.192Z,19.48
2023-04-19T21:11:45.595Z,22.80
2023-04-19T21:14:13.164Z,24.70
2023-04-19T21:16:40.487Z,26.65
2023-04-19T21:19:07.569Z,24.77
2023-04-19T21:21:34.332Z,22.83
2023-04-19T21:24:01.311Z,24.08
2023-04-19T21:26:28.161Z,26.83
2023-04-19T21:28:55.346Z,29.73
2023-04-19T21:31:22.192Z,23.73
2023-04-19T21:33:49.260Z,26.90
2023-04-19T21:36:16.295Z,26.13
2023-04-19T21:38:43.558Z,25.80
2023-04-19T21:41:10.869Z,26.90
2023-04-19T21:43:37.729Z,30.98
2023-04-19T21:46:05.247Z,31.25
2023-04-19T21:48:32.265Z,28.13
2023-04-19T21:51:00.707Z,28.17
2023-04-19T21:53:27.643Z,28.83
2023-04-19T21:55:54.518Z,28.33
2023-04-19T21:58:22.225Z,29.85
2023-04-19T22:00:49.491Z,29.27
2023-04-19T22:03:16.540Z,26.92
2023-04-19T22:05:46.185Z,28.77
2023-04-19T22:08:13.903Z,27.75
2023-04-19T22:10:41.148Z,30.05
2023-04-19T22:13:08.751Z,28.92
2023-04-19T22:15:36.641Z,32.17
2023-04-19T22:18:04.591Z,29.90
2023-04-19T22:20:32.182Z,28.50
2023-04-19T22:22:59.425Z,31.05
2023-04-19T22:25:26.387Z,29.55
2023-04-19T22:27:53.326Z,28.48
2023-04-19T22:30:20.810Z,29.85
2023-04-19T22:32:48.497Z,27.67
2023-04-19T22:35:15.566Z,26.67
2023-04-19T22:37:42.456Z,26.00
2023-04-19T22:40:09.931Z,27.80
2023-04-19T22:42:37.214Z,29.52
2023-04-19T22:45:04.808Z,24.70
2023-04-19T22:47:33.037Z,23.15
2023-04-19T22:50:01.260Z,23.45
2023-04-19T22:52:28.009Z,21.35
2023-04-19T22:54:55.235Z,22.52
2023-04-19T22:57:22.056Z,21.63
2023-04-19T22:59:49.043Z,19.20
2023-04-19T23:02:15.985Z,20.05
2023-04-19T23:04:44.856Z,16.83
2023-04-19T23:07:11.907Z,16.58
2023-04-19T23:09:39.344Z,16.50
2023-04-19T23:12:08.158Z,16.80
2023-04-19T23:14:35.687Z,15.60
2023-04-19T23:17:02.845Z,14.18
2023-04-19T23:19:30.610Z,16.48
2023-04-19T23:21:57.497Z,17.33
2023-04-19T23:24:25.169Z,16.10
2023-04-19T23:26:52.156Z,14.10
2023-04-19T23:29:22.069Z,13.38
2023-04-19T23:31:48.909Z,12.50
2023-04-19T23:34:16.600Z,11.45
2023-04-19T23:36:43.670Z,12.77
2023-04-19T23:39:10.752Z,13.43
2023-04-19T23:41:37.632Z,12.82
2023-04-19T23:44:04.594Z,11.05
2023-04-19T23:46:31.603Z,10.88
2023-04-19T23:48:58.604Z,12.15
2023-04-19T23:51:25.396Z,10.65
2023-04-19T23:53:52.233Z,12.18
2023-04-19T23:56:19.449Z,11.55
2023-04-19T23:58:46.617Z,10.25
